Bookmark and Share
Track history (hours):
 

Gabriella

Last reported at 2014-Apr-20 02:33 UTC. Time now 2014-Apr-20 03:25 UTC.
Position N 59°38' E 022°51'.

Length 172 m; draft 6.5 m.

Type: Passenger vessel. MMSI: 230361000.

NotesDate/timePositionNaut miles runAvg speedWind from/ knotsBaromVisibWave heightAir tempDewpointWater temp
2014-Apr-20 02:33N 59°38' E 022°51'2318.5
2014-Apr-20 01:18N 59°33' E 022°07'1418.4
2014-Apr-20 00:33N 59°32' E 021°40'9811.8
2014-Apr-19 16:15N 59°28' E 018°26'7 9.6
2014-Apr-19 15:33N 59°22' E 018°27'1010.3
2014-Apr-19 14:33N 59°19' E 018°07'1 0.7
2014-Apr-19 13:31N 59°19' E 018°06'0 0.0
2014-Apr-19 12:34N 59°19' E 018°06'0 0.0
2014-Apr-19 11:31N 59°19' E 018°06'0 0.0
2014-Apr-19 10:31N 59°19' E 018°06'0 0.0
2014-Apr-19 09:31N 59°19' E 018°06'0 0.0
2014-Apr-19 08:31N 59°19' E 018°06'2 2.4
2014-Apr-19 07:33N 59°19' E 018°10'91 9.8
2014-Apr-18 22:14N 59°37' E 021°07'1217.4
2014-Apr-18 21:34N 59°34' E 021°29'5217.2
2014-Apr-18 18:32N 59°39' E 023°12'1717.5
2014-Apr-18 17:33N 59°44' E 023°44'3417.1
2014-Apr-18 15:33N 59°57' E 024°47'1413.7
2014-Apr-18 14:33N 60°10' E 024°58'0 0.1
2014-Apr-18 13:07N 60°10' E 024°58'0 0.0
2014-Apr-18 11:31N 60°10' E 024°58'0 0.0
2014-Apr-18 10:31N 60°10' E 024°58'0 0.0
2014-Apr-18 09:31N 60°10' E 024°58'0 0.0
2014-Apr-18 07:31N 60°10' E 024°58'6 6.7
2014-Apr-18 06:33N 60°03' E 024°58'1615.9
2014-Apr-18 05:33N 59°53' E 024°34'1717.1
2014-Apr-18 04:33N 59°47' E 024°02'1818.0
2014-Apr-18 03:33N 59°43' E 023°27'4318.8
2014-Apr-18 01:15N 59°33' E 022°04'1318.5
2014-Apr-18 00:33N 59°32' E 021°38'9811.6
2014-Apr-17 16:10N 59°27' E 018°26'6 9.5
2014-Apr-17 15:33N 59°22' E 018°27'1010.3
2014-Apr-17 14:33N 59°19' E 018°07'1 0.7
2014-Apr-17 13:31N 59°19' E 018°06'0 0.0
2014-Apr-17 12:31N 59°19' E 018°06'0 0.0
2014-Apr-17 11:31N 59°19' E 018°06'0 0.0
2014-Apr-17 10:31N 59°19' E 018°06'0 0.1
2014-Apr-17 09:31N 59°19' E 018°06'0 0.0
2014-Apr-17 08:31N 59°19' E 018°06'2 1.9
2014-Apr-17 07:33N 59°19' E 018°09'92 9.9
2014-Apr-16 22:13N 59°37' E 021°08'1217.5
2014-Apr-16 21:33N 59°34' E 021°30'1717.1
2014-Apr-16 20:33N 59°33' E 022°03'1917.5
2014-Apr-16 19:28N 59°36' E 022°41'1617.5
2014-Apr-16 18:33N 59°39' E 023°12'1717.2
2014-Apr-16 17:33N 59°44' E 023°44'1717.4
2014-Apr-16 16:33N 59°49' E 024°17'1717.4
2014-Apr-16 15:33N 59°57' E 024°48'1313.3
2014-Apr-16 14:33N 60°10' E 024°58'0 0.1
2014-Apr-16 13:29N 60°10' E 024°58'0 0.0
2014-Apr-16 12:32N 60°10' E 024°58'0 0.0
2014-Apr-16 11:32N 60°10' E 024°58'0 0.0
2014-Apr-16 10:32N 60°10' E 024°58'0 0.0
2014-Apr-16 09:32N 60°10' E 024°58'0 0.0
2014-Apr-16 08:32N 60°10' E 024°58'0 0.0
2014-Apr-16 07:32N 60°10' E 024°58'6 6.1
2014-Apr-16 06:33N 60°04' E 024°58'1615.9
2014-Apr-16 05:33N 59°53' E 024°34'1717.0
2014-Apr-16 04:33N 59°47' E 024°02'1818.1
2014-Apr-16 03:33N 59°42' E 023°27'2218.6
2014-Apr-16 02:23N 59°38' E 022°45'1918.6
2014-Apr-16 01:22N 59°33' E 022°09'1518.4
2014-Apr-16 00:34N 59°32' E 021°40'9811.7
2014-Apr-15 16:09N 59°27' E 018°26'6 9.6
2014-Apr-15 15:33N 59°22' E 018°27'1010.4
2014-Apr-15 14:33N 59°19' E 018°07'1 0.3
2014-Apr-15 12:32N 59°19' E 018°06'0 0.0
2014-Apr-15 11:32N 59°19' E 018°06'0 0.0
2014-Apr-15 10:32N 59°19' E 018°06'0 0.0
2014-Apr-15 09:32N 59°19' E 018°06'0 0.0
2014-Apr-15 08:32N 59°19' E 018°06'0 0.0
2014-Apr-15 07:31N 59°19' E 018°06'2 1.7
2014-Apr-15 06:34N 59°19' E 018°09'10310.3
2014-Apr-14 20:34N 59°34' E 021°30'5217.3
2014-Apr-14 17:32N 59°39' E 023°13'1717.5
2014-Apr-14 16:34N 59°44' E 023°45'1817.5
2014-Apr-14 15:32N 59°49' E 024°19'2814.2
2014-Apr-14 13:33N 60°10' E 024°58'0 0.0
2014-Apr-14 11:32N 60°10' E 024°58'0 0.0
2014-Apr-14 10:32N 60°10' E 024°58'0 0.0
2014-Apr-14 09:32N 60°10' E 024°58'0 0.0
2014-Apr-14 08:32N 60°10' E 024°58'0 0.0
2014-Apr-14 07:32N 60°10' E 024°58'0 0.0
2014-Apr-14 06:32N 60°10' E 024°58'6 6.2
2014-Apr-14 05:33N 60°04' E 024°58'20115.0
2014-Apr-13 16:10N 59°28' E 018°26'6 9.5
2014-Apr-13 15:33N 59°22' E 018°27'1010.2
2014-Apr-13 14:33N 59°19' E 018°08'1 0.8
2014-Apr-13 13:33N 59°19' E 018°06'0 0.0
2014-Apr-13 12:33N 59°19' E 018°06'0 0.0
2014-Apr-13 11:33N 59°19' E 018°06'0 0.0
2014-Apr-13 10:33N 59°19' E 018°06'0 0.0
2014-Apr-13 09:33N 59°19' E 018°06'0 0.0
2014-Apr-13 08:33N 59°19' E 018°06'2 1.9
2014-Apr-13 07:33N 59°19' E 018°10'92 9.9
2014-Apr-12 22:17N 59°37' E 021°07'1317.8
2014-Apr-12 21:33N 59°34' E 021°32'5217.4
2014-Apr-12 18:33N 59°40' E 023°14'1716.7
2014-Apr-12 17:33N 59°44' E 023°46'1717.0
2014-Apr-12 16:33N 59°49' E 024°18'1916.9
2014-Apr-12 15:27N 59°58' E 024°51'1213.5
2014-Apr-12 14:33N 60°10' E 024°58'0 0.1
2014-Apr-12 13:32N 60°10' E 024°58'0 0.0
2014-Apr-12 12:29N 60°10' E 024°58'0 0.0
2014-Apr-12 11:32N 60°10' E 024°58'0 0.0
2014-Apr-12 10:29N 60°10' E 024°58'0 0.0
2014-Apr-12 09:32N 60°10' E 024°58'0 0.0
2014-Apr-12 08:32N 60°10' E 024°58'0 0.0
2014-Apr-12 07:32N 60°10' E 024°58'6 6.3
2014-Apr-12 06:33N 60°04' E 024°58'1616.1
2014-Apr-12 05:33N 59°53' E 024°34'1717.2
2014-Apr-12 04:33N 59°47' E 024°02'1818.0
2014-Apr-12 03:33N 59°43' E 023°27'4418.6
2014-Apr-12 01:10N 59°33' E 022°02'1118.4
2014-Apr-12 00:33N 59°33' E 021°40'9811.8
2014-Apr-11 16:13N 59°27' E 018°26'6 6.3
2014-Apr-11 15:13N 59°22' E 018°19'711.1
2014-Apr-11 14:33N 59°19' E 018°06'0 0.3
2014-Apr-11 13:31N 59°19' E 018°06'0 0.0
2014-Apr-11 12:31N 59°19' E 018°06'0 0.0
2014-Apr-11 11:31N 59°19' E 018°06'0 0.0
2014-Apr-11 10:28N 59°19' E 018°06'0 0.0
2014-Apr-11 09:31N 59°19' E 018°06'0 0.0
2014-Apr-11 08:31N 59°19' E 018°06'4 3.7
2014-Apr-11 07:33N 59°20' E 018°12'10010.0
2014-Apr-10 21:33N 59°34' E 021°27'5217.3
2014-Apr-10 18:32N 59°39' E 023°10'1717.6
2014-Apr-10 17:33N 59°44' E 023°43'1817.6
2014-Apr-10 16:32N 59°49' E 024°17'2017.6
2014-Apr-10 15:25N 59°58' E 024°51'1213.8
2014-Apr-10 14:33N 60°10' E 024°58'0 0.1
2014-Apr-10 13:32N 60°10' E 024°58'0 0.0
2014-Apr-10 12:29N 60°10' E 024°58'0 0.0
2014-Apr-10 11:32N 60°10' E 024°58'0 0.0
2014-Apr-10 10:32N 60°10' E 024°58'0 0.0
2014-Apr-10 09:32N 60°10' E 024°58'0 0.0
2014-Apr-10 08:11N 60°10' E 024°58'0 0.0
2014-Apr-10 07:29N 60°10' E 024°58'6 6.3
2014-Apr-10 06:33N 60°04' E 024°58'1917.2
2014-Apr-10 05:28N 59°52' E 024°29'1718.6
2014-Apr-10 04:33N 59°46' E 023°57'1818.3
2014-Apr-10 03:33N 59°42' E 023°22'  

Dump ship's entire track history

sailing weather and tide predictions

Gabriella — OJHP — position and weather